createdAt,value
2018-06-28T00:01:05.623Z,3.37
2018-06-28T00:03:34.554Z,3.30
2018-06-28T00:06:03.603Z,3.97
2018-06-28T00:08:32.398Z,3.33
2018-06-28T00:11:01.219Z,3.70
2018-06-28T00:13:30.082Z,3.40
2018-06-28T00:15:58.946Z,3.17
2018-06-28T00:18:27.766Z,3.37
2018-06-28T00:20:56.590Z,3.23
2018-06-28T00:23:25.450Z,2.90
2018-06-28T00:25:54.282Z,3.27
2018-06-28T00:28:23.098Z,3.37
2018-06-28T00:30:51.970Z,3.30
2018-06-28T00:33:20.930Z,3.10
2018-06-28T00:35:49.765Z,3.50
2018-06-28T00:38:18.634Z,3.33
2018-06-28T00:40:47.464Z,2.73
2018-06-28T00:43:16.367Z,2.90
2018-06-28T00:45:45.234Z,3.20
2018-06-28T00:48:13.849Z,3.03
2018-06-28T00:50:42.564Z,3.03
2018-06-28T00:53:11.399Z,3.20
2018-06-28T00:55:40.243Z,2.90
2018-06-28T00:58:09.066Z,3.13
2018-06-28T01:00:37.927Z,3.40
2018-06-28T01:03:06.770Z,3.23
2018-06-28T01:05:35.630Z,3.10
2018-06-28T01:08:04.267Z,2.80
2018-06-28T01:10:32.954Z,3.10
2018-06-28T01:13:01.811Z,3.43
2018-06-28T01:15:30.651Z,3.33
2018-06-28T01:17:59.482Z,3.20
2018-06-28T01:20:28.303Z,2.77
2018-06-28T01:22:57.822Z,3.00
2018-06-28T01:25:26.635Z,2.80
2018-06-28T01:27:55.490Z,2.77
2018-06-28T01:30:24.398Z,3.37
2018-06-28T01:32:53.252Z,3.27
2018-06-28T01:35:22.122Z,3.10
2018-06-28T01:37:50.971Z,2.97
2018-06-28T01:40:19.786Z,2.80
2018-06-28T01:42:59.947Z,2.70
2018-06-28T01:45:28.766Z,3.00
2018-06-28T01:47:57.606Z,3.00
2018-06-28T01:50:26.473Z,2.87
2018-06-28T01:52:55.409Z,2.77
2018-06-28T01:55:24.170Z,2.97
2018-06-28T01:57:52.991Z,3.20
2018-06-28T02:00:21.826Z,2.67
2018-06-28T02:02:50.659Z,2.63
2018-06-28T02:05:19.487Z,2.97
2018-06-28T02:07:48.359Z,2.73
2018-06-28T02:10:17.166Z,2.60
2018-06-28T02:12:46.019Z,2.60
2018-06-28T02:15:14.846Z,2.53
2018-06-28T02:17:43.703Z,2.73
2018-06-28T02:20:12.522Z,2.73
2018-06-28T02:22:41.346Z,2.70
2018-06-28T02:25:10.226Z,2.63
2018-06-28T02:27:39.134Z,2.77
2018-06-28T02:30:08.015Z,3.13
2018-06-28T02:32:36.865Z,2.67
2018-06-28T02:35:05.693Z,2.60
2018-06-28T02:37:34.706Z,2.93
2018-06-28T02:40:04.180Z,2.67
2018-06-28T02:42:32.999Z,2.80
2018-06-28T02:45:01.847Z,2.73
2018-06-28T02:47:30.709Z,3.37
2018-06-28T02:49:59.692Z,3.00
2018-06-28T02:52:28.578Z,2.70
2018-06-28T02:54:57.854Z,3.30
2018-06-28T02:57:26.832Z,2.70
2018-06-28T02:59:55.706Z,2.50
2018-06-28T03:02:24.560Z,3.23
2018-06-28T03:04:53.482Z,3.20
2018-06-28T03:07:22.310Z,3.23
2018-06-28T03:09:51.168Z,3.00
2018-06-28T03:12:19.990Z,2.70
2018-06-28T03:14:48.833Z,2.83
2018-06-28T03:17:17.682Z,2.83
2018-06-28T03:19:46.515Z,2.60
2018-06-28T03:22:15.364Z,3.23
2018-06-28T03:24:44.230Z,2.90
2018-06-28T03:27:13.102Z,2.90
2018-06-28T03:29:41.966Z,3.23
2018-06-28T03:32:10.791Z,2.93
2018-06-28T03:34:39.662Z,2.70
2018-06-28T03:37:08.515Z,3.30
2018-06-28T03:39:37.335Z,2.70
2018-06-28T03:42:06.220Z,2.97
2018-06-28T03:44:35.078Z,3.03
2018-06-28T03:47:03.930Z,3.03
2018-06-28T03:49:32.779Z,2.47
2018-06-28T03:52:01.582Z,2.87
2018-06-28T03:54:30.478Z,3.00
2018-06-28T03:56:59.382Z,2.73
2018-06-28T03:59:28.270Z,2.70
2018-06-28T04:01:57.107Z,2.60
2018-06-28T04:04:25.932Z,2.63
2018-06-28T04:06:54.788Z,2.70
2018-06-28T04:09:23.610Z,2.73
2018-06-28T04:11:52.472Z,2.60
2018-06-28T04:14:21.292Z,2.83
2018-06-28T04:16:50.134Z,2.80
2018-06-28T04:19:19.415Z,2.90
2018-06-28T04:21:48.117Z,2.63
2018-06-28T04:24:16.951Z,3.03
2018-06-28T04:26:46.015Z,2.70
2018-06-28T04:29:14.806Z,2.90
2018-06-28T04:31:43.661Z,3.30
2018-06-28T04:34:12.482Z,2.53
2018-06-28T04:36:41.320Z,2.87
2018-06-28T04:39:11.859Z,2.73
2018-06-28T04:41:40.710Z,2.73
2018-06-28T04:44:09.546Z,2.90
2018-06-28T04:46:38.460Z,2.73
2018-06-28T04:49:07.286Z,2.60
2018-06-28T04:51:37.753Z,2.70
2018-06-28T04:54:06.547Z,2.87
2018-06-28T04:56:35.430Z,2.67
2018-06-28T04:59:04.292Z,3.07
2018-06-28T05:01:33.648Z,2.83
2018-06-28T05:04:02.476Z,2.97
2018-06-28T05:06:31.306Z,2.83
2018-06-28T05:09:00.274Z,3.10
2018-06-28T05:11:29.099Z,3.00
2018-06-28T05:13:57.984Z,2.60
2018-06-28T05:16:26.858Z,2.83
2018-06-28T05:18:55.712Z,3.03
2018-06-28T05:21:24.579Z,3.13
2018-06-28T05:23:53.182Z,2.93
2018-06-28T05:26:21.891Z,2.50
2018-06-28T05:28:50.715Z,2.90
2018-06-28T05:31:19.589Z,3.37
2018-06-28T05:33:48.494Z,2.87
2018-06-28T05:36:17.342Z,3.07
2018-06-28T05:38:46.281Z,3.07
2018-06-28T05:41:14.894Z,9.03
2018-06-28T05:43:43.658Z,7.53
2018-06-28T05:46:12.515Z,8.90
2018-06-28T05:48:41.338Z,8.77
2018-06-28T05:51:10.264Z,8.63
2018-06-28T05:53:39.074Z,9.37
2018-06-28T05:56:07.892Z,7.80
2018-06-28T05:58:36.726Z,9.73
2018-06-28T06:01:05.658Z,8.93
2018-06-28T06:03:34.506Z,10.00
2018-06-28T06:06:03.415Z,9.57
2018-06-28T06:08:32.313Z,9.83
2018-06-28T06:11:01.143Z,9.13
2018-06-28T06:13:30.027Z,9.73
2018-06-28T06:15:58.895Z,10.60
2018-06-28T06:18:27.744Z,9.87
2018-06-28T06:20:56.581Z,8.38
2018-06-28T06:23:25.402Z,8.57
2018-06-28T06:25:54.370Z,9.63
2018-06-28T06:28:23.009Z,10.57
2018-06-28T06:30:51.745Z,9.23
2018-06-28T06:33:20.444Z,9.83
2018-06-28T06:35:49.170Z,9.60
2018-06-28T06:38:18.046Z,9.70
2018-06-28T06:40:46.922Z,9.67
2018-06-28T06:43:15.742Z,9.90
2018-06-28T06:45:44.602Z,8.67
2018-06-28T06:48:13.436Z,10.23
2018-06-28T06:50:42.334Z,8.87
2018-06-28T06:53:11.327Z,9.27
2018-06-28T06:55:40.179Z,9.77
2018-06-28T06:58:09.022Z,9.33
2018-06-28T07:00:37.967Z,7.13
2018-06-28T07:03:06.888Z,9.73
2018-06-28T07:05:35.748Z,10.50
2018-06-28T07:08:04.654Z,10.00
2018-06-28T07:10:33.555Z,9.03
2018-06-28T07:13:02.528Z,8.80
2018-06-28T07:15:31.514Z,9.23
2018-06-28T07:18:00.338Z,8.83
2018-06-28T07:20:29.187Z,7.83
2018-06-28T07:22:58.064Z,8.97
2018-06-28T07:25:26.987Z,7.73
2018-06-28T07:27:55.833Z,7.80
2018-06-28T07:30:24.672Z,8.47
2018-06-28T07:32:53.514Z,8.27
2018-06-28T07:35:22.360Z,8.47
2018-06-28T07:37:51.191Z,8.97
2018-06-28T07:40:20.056Z,7.73
2018-06-28T07:42:49.030Z,7.83
2018-06-28T07:45:17.854Z,8.77
2018-06-28T07:47:46.718Z,7.17
2018-06-28T07:50:15.620Z,8.20
2018-06-28T07:52:44.461Z,7.53
2018-06-28T07:55:13.274Z,7.90
2018-06-28T07:57:42.090Z,7.47
2018-06-28T08:00:10.924Z,8.20
2018-06-28T08:02:39.853Z,8.00
2018-06-28T08:05:08.441Z,6.97
2018-06-28T08:07:37.182Z,8.07
2018-06-28T08:10:06.034Z,8.30
2018-06-28T08:12:34.874Z,6.10
2018-06-28T08:15:03.802Z,7.40
2018-06-28T08:17:32.523Z,5.53
2018-06-28T08:20:01.434Z,7.00
2018-06-28T08:22:30.726Z,6.00
2018-06-28T08:25:00.078Z,5.70
2018-06-28T08:27:29.050Z,6.37
2018-06-28T08:29:58.003Z,6.93
2018-06-28T08:32:26.936Z,5.87
2018-06-28T08:34:56.035Z,5.90
2018-06-28T08:37:25.047Z,5.77
2018-06-28T08:39:54.227Z,5.63
2018-06-28T08:42:23.219Z,5.70
2018-06-28T08:44:54.911Z,5.00
2018-06-28T08:47:23.894Z,5.90
2018-06-28T08:49:52.743Z,5.60
2018-06-28T08:52:21.610Z,5.60
2018-06-28T08:54:50.514Z,5.13
2018-06-28T08:57:19.346Z,5.03
2018-06-28T08:59:48.212Z,4.50
2018-06-28T09:02:17.091Z,4.07
2018-06-28T09:04:45.977Z,4.03
2018-06-28T09:07:14.923Z,3.83
2018-06-28T09:09:43.823Z,4.23
2018-06-28T09:12:12.715Z,4.60
2018-06-28T09:14:41.600Z,3.53
2018-06-28T09:17:10.476Z,3.87
2018-06-28T09:19:39.334Z,4.33
2018-06-28T09:22:08.262Z,3.37
2018-06-28T09:24:37.106Z,3.47
2018-06-28T09:27:05.984Z,2.87
2018-06-28T09:29:34.902Z,3.10
2018-06-28T09:32:04.091Z,2.83
2018-06-28T09:34:33.035Z,3.40
2018-06-28T09:37:01.918Z,2.77
2018-06-28T09:39:30.856Z,2.40
2018-06-28T09:41:59.970Z,2.57
2018-06-28T09:44:28.831Z,2.80
2018-06-28T09:46:58.142Z,2.67
2018-06-28T09:49:27.077Z,2.50
2018-06-28T09:51:55.972Z,3.00
2018-06-28T09:54:25.302Z,3.27
2018-06-28T09:56:54.238Z,2.83
2018-06-28T09:59:23.194Z,2.87
2018-06-28T10:01:52.051Z,2.33
2018-06-28T10:04:20.927Z,2.80
2018-06-28T10:06:49.826Z,3.13
2018-06-28T10:09:18.720Z,2.87
2018-06-28T10:11:47.683Z,2.50
2018-06-28T10:14:17.118Z,2.93
2018-06-28T10:16:46.217Z,3.20
2018-06-28T10:19:15.200Z,3.20
2018-06-28T10:21:44.090Z,2.57
2018-06-28T10:24:12.986Z,2.80
2018-06-28T10:26:41.629Z,2.93
2018-06-28T10:29:10.358Z,2.70
2018-06-28T10:31:39.240Z,2.73
2018-06-28T10:34:08.183Z,2.47
2018-06-28T10:36:37.103Z,2.70
2018-06-28T10:39:07.841Z,2.93
2018-06-28T10:41:37.024Z,3.07
2018-06-28T10:44:05.876Z,2.70
2018-06-28T10:46:34.747Z,2.53
2018-06-28T10:49:03.683Z,2.10
2018-06-28T10:51:32.559Z,3.07
2018-06-28T10:54:01.515Z,2.70
2018-06-28T10:56:30.190Z,2.83
2018-06-28T10:58:58.914Z,3.00
2018-06-28T11:01:27.747Z,2.83
2018-06-28T11:03:56.661Z,2.40
2018-06-28T11:06:25.632Z,2.83
2018-06-28T11:08:54.430Z,2.23
2018-06-28T11:11:23.119Z,2.80
2018-06-28T11:13:51.861Z,2.63
2018-06-28T11:16:20.762Z,2.53
2018-06-28T11:18:49.589Z,2.60
2018-06-28T11:21:18.447Z,2.87
2018-06-28T11:23:47.303Z,2.53
2018-06-28T11:26:16.145Z,2.30
2018-06-28T11:28:44.764Z,2.47
2018-06-28T11:31:13.475Z,2.17
2018-06-28T11:33:42.332Z,2.33
2018-06-28T11:36:11.239Z,2.07
2018-06-28T11:38:39.898Z,2.30
2018-06-28T11:41:08.688Z,2.37
2018-06-28T11:43:37.575Z,2.10
2018-06-28T11:46:06.386Z,2.40
2018-06-28T11:48:35.258Z,2.43
2018-06-28T11:51:04.142Z,2.37
2018-06-28T11:53:32.982Z,2.50
2018-06-28T11:56:01.815Z,2.37
2018-06-28T11:58:30.683Z,2.43
2018-06-28T12:00:59.630Z,2.30
2018-06-28T12:03:28.474Z,2.73
2018-06-28T12:05:57.370Z,2.40
2018-06-28T12:08:26.328Z,2.30
2018-06-28T12:10:55.209Z,2.50
2018-06-28T12:13:24.153Z,2.53
2018-06-28T12:15:53.042Z,3.10
2018-06-28T12:18:21.932Z,2.60
2018-06-28T12:20:50.742Z,2.97
2018-06-28T12:23:19.750Z,3.37
2018-06-28T12:25:48.608Z,2.80
2018-06-28T12:28:17.626Z,3.03
2018-06-28T12:30:46.510Z,3.77
2018-06-28T12:33:15.364Z,3.30
2018-06-28T12:35:44.195Z,3.20
2018-06-28T12:38:13.022Z,4.10
2018-06-28T12:40:41.890Z,3.37
2018-06-28T12:43:10.795Z,4.47
2018-06-28T12:45:39.629Z,3.70
2018-06-28T12:48:11.362Z,4.43
2018-06-28T12:50:40.266Z,3.77
2018-06-28T12:53:10.274Z,3.80
2018-06-28T12:56:43.950Z,4.70
2018-06-28T12:59:14.225Z,3.63
2018-06-28T13:01:43.174Z,3.33
2018-06-28T13:04:12.121Z,3.70
2018-06-28T13:06:41.009Z,3.77
2018-06-28T13:09:17.226Z,3.97
2018-06-28T13:11:46.166Z,3.53
2018-06-28T13:14:15.000Z,3.80
2018-06-28T13:16:43.682Z,4.03
2018-06-28T13:19:12.430Z,3.70
2018-06-28T13:21:41.278Z,3.67
2018-06-28T13:24:10.174Z,3.77
2018-06-28T13:26:39.023Z,4.03
2018-06-28T13:29:07.859Z,4.77
2018-06-28T13:31:36.699Z,3.97
2018-06-28T13:34:05.606Z,4.03
2018-06-28T13:36:34.509Z,3.80
2018-06-28T13:39:03.417Z,3.63
2018-06-28T13:41:32.461Z,3.43
2018-06-28T13:44:00.879Z,3.17
2018-06-28T13:46:29.381Z,4.17
2018-06-28T13:48:58.175Z,3.80
2018-06-28T13:51:27.137Z,4.00
2018-06-28T13:53:56.032Z,3.50
2018-06-28T13:56:24.903Z,3.63
2018-06-28T13:58:53.796Z,3.87
2018-06-28T14:01:22.672Z,3.47
2018-06-28T14:03:51.662Z,3.63
2018-06-28T14:06:20.582Z,3.70
2018-06-28T14:08:49.675Z,3.87
2018-06-28T14:11:18.560Z,3.77
2018-06-28T14:13:47.457Z,3.00
2018-06-28T14:16:16.341Z,3.37
2018-06-28T14:18:45.258Z,3.53
2018-06-28T14:21:14.094Z,3.40
2018-06-28T14:23:42.768Z,3.30
2018-06-28T14:26:11.525Z,2.90
2018-06-28T14:28:40.436Z,3.40
2018-06-28T14:31:09.455Z,3.50
2018-06-28T14:33:38.147Z,3.20
2018-06-28T14:36:06.851Z,3.77
2018-06-28T14:38:35.711Z,3.20
2018-06-28T14:41:04.651Z,3.43
2018-06-28T14:43:33.525Z,3.03
2018-06-28T14:46:02.426Z,3.40
2018-06-28T14:48:31.348Z,2.90
2018-06-28T14:51:00.315Z,3.03
2018-06-28T14:53:29.199Z,2.80
2018-06-28T14:55:58.075Z,3.00
2018-06-28T14:58:26.977Z,2.33
2018-06-28T15:00:55.903Z,2.90
2018-06-28T15:03:24.807Z,2.80
2018-06-28T15:05:53.719Z,2.40
2018-06-28T15:08:22.571Z,2.30
2018-06-28T15:10:51.445Z,2.60
2018-06-28T15:13:20.339Z,2.67
2018-06-28T15:15:49.238Z,2.43
2018-06-28T15:18:18.146Z,2.77
2018-06-28T15:20:47.115Z,2.40
2018-06-28T15:23:15.941Z,3.13
2018-06-28T15:25:44.828Z,2.40
2018-06-28T15:28:13.456Z,2.57
2018-06-28T15:30:42.251Z,2.73
2018-06-28T15:33:11.281Z,2.30
2018-06-28T15:35:40.061Z,2.50
2018-06-28T15:38:08.737Z,2.90
2018-06-28T15:40:37.499Z,2.43
2018-06-28T15:43:06.355Z,2.67
2018-06-28T15:45:35.242Z,2.07
2018-06-28T15:48:04.122Z,1.87
2018-06-28T15:50:33.391Z,2.20
2018-06-28T15:53:02.319Z,2.27
2018-06-28T15:55:31.191Z,2.10
2018-06-28T15:58:00.137Z,2.10
2018-06-28T16:00:29.709Z,2.00
2018-06-28T16:02:59.194Z,1.73
2018-06-28T16:05:28.103Z,2.50
2018-06-28T16:07:56.970Z,1.80
2018-06-28T16:10:25.679Z,1.60
2018-06-28T16:12:54.250Z,1.90
2018-06-28T16:15:22.830Z,1.73
2018-06-28T16:17:51.635Z,1.60
2018-06-28T16:20:21.412Z,1.80
2018-06-28T16:22:51.100Z,1.57
2018-06-28T16:25:19.991Z,1.23
2018-06-28T16:27:49.003Z,1.67
2018-06-28T16:30:18.095Z,1.50
2018-06-28T16:32:46.982Z,1.57
2018-06-28T16:35:15.702Z,1.50
2018-06-28T16:37:44.646Z,1.70
2018-06-28T16:40:13.595Z,2.07
2018-06-28T16:42:42.628Z,2.00
2018-06-28T16:45:11.827Z,1.70
2018-06-28T16:47:40.774Z,1.43
2018-06-28T16:50:09.639Z,1.40
2018-06-28T16:52:38.538Z,1.90
2018-06-28T16:55:07.611Z,1.10
2018-06-28T16:57:36.537Z,1.37
2018-06-28T17:00:05.886Z,1.47
2018-06-28T17:02:34.780Z,1.53
2018-06-28T17:05:04.165Z,1.53
2018-06-28T17:07:33.100Z,1.50
2018-06-28T17:10:02.310Z,1.47
2018-06-28T17:12:31.511Z,1.23
2018-06-28T17:15:00.448Z,1.43
2018-06-28T17:17:29.340Z,1.40
2018-06-28T17:19:58.483Z,1.63
2018-06-28T17:22:27.426Z,1.40
2018-06-28T17:24:56.347Z,1.60
2018-06-28T17:27:25.322Z,1.73
2018-06-28T17:29:54.280Z,1.50
2018-06-28T17:32:23.150Z,1.70
2018-06-28T17:34:52.637Z,1.53
2018-06-28T17:37:21.689Z,1.60
2018-06-28T17:39:51.937Z,1.63
2018-06-28T17:42:21.571Z,1.50
2018-06-28T17:44:51.771Z,1.53
2018-06-28T17:47:20.651Z,1.50
2018-06-28T17:49:49.665Z,1.80
2018-06-28T17:52:18.608Z,1.80
2018-06-28T17:54:48.051Z,1.30
2018-06-28T17:57:17.661Z,1.67
2018-06-28T17:59:46.750Z,1.43
2018-06-28T18:02:15.638Z,1.50
2018-06-28T18:04:44.529Z,1.40
2018-06-28T18:07:13.431Z,1.50
2018-06-28T18:09:42.339Z,1.57
2018-06-28T18:12:11.462Z,1.60
2018-06-28T18:14:41.617Z,1.80
2018-06-28T18:17:10.546Z,1.40
2018-06-28T18:19:39.415Z,1.40
2018-06-28T18:22:08.315Z,1.20
2018-06-28T18:24:37.217Z,1.60
2018-06-28T18:27:06.297Z,1.37
2018-06-28T18:29:35.394Z,1.37
2018-06-28T18:32:04.330Z,1.40
2018-06-28T18:34:33.006Z,1.60
2018-06-28T18:37:01.935Z,1.20
2018-06-28T18:39:30.874Z,1.30
2018-06-28T18:41:59.797Z,1.63
2018-06-28T18:44:28.687Z,1.40
2018-06-28T18:46:58.427Z,1.37
2018-06-28T18:49:27.284Z,1.37
2018-06-28T18:51:55.944Z,1.30
2018-06-28T18:54:24.692Z,1.47
2018-06-28T18:56:53.579Z,1.13
2018-06-28T18:59:22.526Z,1.53
2018-06-28T19:01:51.551Z,1.10
2018-06-28T19:04:20.575Z,1.60
2018-06-28T19:06:49.553Z,1.10
2018-06-28T19:09:18.435Z,1.30
2018-06-28T19:11:47.286Z,1.30
2018-06-28T19:14:21.700Z,1.40
2018-06-28T19:16:56.238Z,1.33
2018-06-28T19:19:25.258Z,1.53
2018-06-28T19:21:59.618Z,1.13
2018-06-28T19:24:28.499Z,1.37
2018-06-28T19:26:57.362Z,1.33
2018-06-28T19:29:31.740Z,1.67
2018-06-28T19:32:05.929Z,1.20
2018-06-28T19:34:34.649Z,1.40
2018-06-28T19:37:03.499Z,1.50
2018-06-28T19:39:37.691Z,1.77
2018-06-28T19:42:12.067Z,1.17
2018-06-28T19:44:40.914Z,1.33
2018-06-28T19:47:09.759Z,1.20
2018-06-28T19:49:43.849Z,1.27
2018-06-28T19:52:18.234Z,1.40
2018-06-28T19:54:47.090Z,1.20
2018-06-28T19:57:15.924Z,0.87
2018-06-28T19:59:48.157Z,1.50
2018-06-28T20:02:22.354Z,1.00
2018-06-28T20:04:50.997Z,1.20
2018-06-28T20:07:19.803Z,1.33
2018-06-28T20:09:48.861Z,1.20
2018-06-28T20:12:23.174Z,1.57
2018-06-28T20:14:57.669Z,1.50
2018-06-28T20:17:32.046Z,1.23
2018-06-28T20:20:06.299Z,1.20
2018-06-28T20:22:35.463Z,1.77
2018-06-28T20:25:04.331Z,1.20
2018-06-28T20:27:38.663Z,1.20
2018-06-28T20:30:12.885Z,0.97
2018-06-28T20:32:47.148Z,1.30
2018-06-28T20:35:16.000Z,1.20
2018-06-28T20:37:44.883Z,1.20
2018-06-28T20:40:13.710Z,1.10
2018-06-28T20:42:42.552Z,1.40
2018-06-28T20:45:11.178Z,1.20
2018-06-28T20:47:39.914Z,1.10
2018-06-28T20:50:08.546Z,1.27
2018-06-28T20:52:37.302Z,1.27
2018-06-28T20:55:06.190Z,1.43
2018-06-28T20:57:35.122Z,1.07
2018-06-28T21:00:04.979Z,1.30
2018-06-28T21:02:33.804Z,1.30
2018-06-28T21:05:02.994Z,1.43
2018-06-28T21:07:31.822Z,1.00
2018-06-28T21:10:00.733Z,1.13
2018-06-28T21:12:29.521Z,1.53
2018-06-28T21:14:58.381Z,1.30
2018-06-28T21:17:27.278Z,1.57
2018-06-28T21:19:56.106Z,1.30
2018-06-28T21:22:24.971Z,1.30
2018-06-28T21:24:54.051Z,1.03
2018-06-28T21:27:22.876Z,1.87
2018-06-28T21:29:51.710Z,1.77
2018-06-28T21:32:20.587Z,2.43
2018-06-28T21:34:49.495Z,1.83
2018-06-28T21:37:18.356Z,1.63
2018-06-28T21:39:47.211Z,1.77
2018-06-28T21:42:15.833Z,1.07
2018-06-28T21:44:44.548Z,1.70
2018-06-28T21:47:13.400Z,2.17
2018-06-28T21:49:42.299Z,1.57
2018-06-28T21:52:11.299Z,1.40
2018-06-28T21:54:40.170Z,1.20
2018-06-28T21:57:09.018Z,1.23
2018-06-28T21:59:37.858Z,1.33
2018-06-28T22:02:06.699Z,1.40
2018-06-28T22:04:35.574Z,1.23
2018-06-28T22:07:04.427Z,1.23
2018-06-28T22:09:33.279Z,1.40
2018-06-28T22:12:01.936Z,1.67
2018-06-28T22:14:30.649Z,1.40
2018-06-28T22:16:59.322Z,1.43
2018-06-28T22:19:28.117Z,1.40
2018-06-28T22:21:56.962Z,1.30
2018-06-28T22:24:25.802Z,1.33
2018-06-28T22:26:55.238Z,1.30
2018-06-28T22:29:24.169Z,1.33
2018-06-28T22:31:53.146Z,1.53
2018-06-28T22:34:22.270Z,1.30
2018-06-28T22:36:51.109Z,1.40
2018-06-28T22:39:20.262Z,1.77
2018-06-28T22:41:49.295Z,1.20
2018-06-28T22:44:18.222Z,1.47
2018-06-28T22:46:47.230Z,1.30
2018-06-28T22:49:16.632Z,1.57
2018-06-28T22:51:45.587Z,1.30
2018-06-28T22:54:14.786Z,0.90
2018-06-28T22:56:43.695Z,1.00
2018-06-28T22:59:12.670Z,1.00
2018-06-28T23:01:41.317Z,1.00
2018-06-28T23:04:10.077Z,1.50
2018-06-28T23:06:38.970Z,1.20
2018-06-28T23:09:08.605Z,1.00
2018-06-28T23:11:37.482Z,0.90
2018-06-28T23:14:06.344Z,1.03
2018-06-28T23:16:35.803Z,0.80
2018-06-28T23:19:04.943Z,0.77
2018-06-28T23:21:33.872Z,1.10
2018-06-28T23:24:02.765Z,1.07
2018-06-28T23:26:31.659Z,0.90
2018-06-28T23:29:00.509Z,0.90
2018-06-28T23:31:29.138Z,1.10
2018-06-28T23:33:57.907Z,0.70
2018-06-28T23:36:26.824Z,0.80
2018-06-28T23:38:55.697Z,1.00
2018-06-28T23:41:24.589Z,1.03
2018-06-28T23:43:53.474Z,0.70
2018-06-28T23:46:22.368Z,0.90
2018-06-28T23:48:51.281Z,1.00
2018-06-28T23:51:20.203Z,1.10
2018-06-28T23:53:48.873Z,0.80
2018-06-28T23:56:17.590Z,0.87
2018-06-28T23:58:46.562Z,0.80
